Farnam, Nebraska
Current Conditions -  °F | °C
As of 5:15 AM on Friday 24 Oct 2014 (Local Time) from KLXN Reporting Station
Haze Haze  
Wind Chill: 51°   Ceiling: Unl
Heat Index: 51°   Visibility: 5mi
Dew Point: 49°   Wind: 7mph
Humidity: 93%   Direction: 220°SW
Pressure: 29.97"   Gusts: NA
Location:  40.71°N, 100.21°W
Report Text: KLXN 241015Z AUTO 22006KT 5SM BR CLR 10/09 A2997 RMK AO2 T01030092
Loading
Personal Weather Stations






























Interactive Weather Map
Tropical Storm Tracking
New forecast layout! Learn more

10-Day Weather Forecast

Advertisements
Track Severe Weather on mobile